createdAt,value
2022-11-21T00:00:09.099Z,3.80
2022-11-21T00:05:12.967Z,3.80
2022-11-21T00:10:15.508Z,3.80
2022-11-21T00:15:19.360Z,3.80
2022-11-21T00:20:23.616Z,3.80
2022-11-21T00:25:25.864Z,3.80
2022-11-21T00:30:28.279Z,3.80
2022-11-21T00:35:32.248Z,3.80
2022-11-21T00:40:34.698Z,3.80
2022-11-21T00:45:37.063Z,3.80
2022-11-21T00:50:40.957Z,3.90
2022-11-21T00:55:43.256Z,3.90
2022-11-21T01:00:45.546Z,3.90
2022-11-21T01:05:49.450Z,3.90
2022-11-21T01:10:51.859Z,4.00
2022-11-21T01:15:56.522Z,4.00
2022-11-21T01:21:02.059Z,4.00
2022-11-21T01:26:06.055Z,4.00
2022-11-21T01:31:10.511Z,4.00
2022-11-21T01:36:16.642Z,4.10
2022-11-21T01:41:21.358Z,4.10
2022-11-21T01:46:24.438Z,4.10
2022-11-21T01:51:31.873Z,4.10
2022-11-21T01:56:40.034Z,4.10
2022-11-21T02:01:44.646Z,4.10
2022-11-21T02:06:51.191Z,4.00
2022-11-21T02:11:58.677Z,3.90
2022-11-21T02:17:05.137Z,3.90
2022-11-21T02:22:16.582Z,3.80
2022-11-21T02:27:20.377Z,3.80
2022-11-21T02:32:23.967Z,3.80
2022-11-21T02:37:26.453Z,3.80
2022-11-21T02:42:34.867Z,3.80
2022-11-21T02:47:39.191Z,3.80
2022-11-21T02:52:41.782Z,3.70
2022-11-21T02:57:45.611Z,3.70
2022-11-21T03:02:48.150Z,3.60
2022-11-21T03:07:50.864Z,3.60
2022-11-21T03:12:54.746Z,3.50
2022-11-21T03:17:58.041Z,3.60
2022-11-21T03:23:00.309Z,3.50
2022-11-21T03:28:04.364Z,3.60
2022-11-21T03:33:06.810Z,3.50
2022-11-21T03:38:09.059Z,3.50
2022-11-21T03:43:12.784Z,3.50
2022-11-21T03:48:15.273Z,3.50
2022-11-21T03:53:17.519Z,3.50
2022-11-21T03:58:21.372Z,3.40
2022-11-21T04:03:23.690Z,3.40
2022-11-21T04:08:26.392Z,3.50
2022-11-21T04:13:30.500Z,3.50
2022-11-21T04:18:34.311Z,3.60
2022-11-21T04:23:36.558Z,3.60
2022-11-21T04:28:40.384Z,3.60
2022-11-21T04:33:42.688Z,3.60
2022-11-21T04:38:44.973Z,3.70
2022-11-21T04:43:48.794Z,3.70
2022-11-21T04:48:51.170Z,3.70
2022-11-21T04:53:53.478Z,3.70
2022-11-21T04:58:58.209Z,3.70
2022-11-21T05:04:00.540Z,3.70
2022-11-21T05:09:02.869Z,3.70
2022-11-21T05:14:06.688Z,3.70
2022-11-21T05:19:09.779Z,3.70
2022-11-21T05:24:15.078Z,3.60
2022-11-21T05:29:20.699Z,3.60
2022-11-21T05:34:26.668Z,3.50
2022-11-21T05:39:29.392Z,3.50
2022-11-21T05:44:33.093Z,3.40
2022-11-21T05:49:35.622Z,3.30
2022-11-21T05:54:40.378Z,3.30
2022-11-21T05:59:46.224Z,3.30
2022-11-21T06:04:48.530Z,3.20
2022-11-21T06:09:50.686Z,3.20
2022-11-21T06:14:54.622Z,3.20
2022-11-21T06:19:56.894Z,3.20
2022-11-21T06:24:59.237Z,3.30
2022-11-21T06:30:07.381Z,3.20
2022-11-21T06:35:09.748Z,3.20
2022-11-21T06:40:12.997Z,3.30
2022-11-21T06:45:17.076Z,3.30
2022-11-21T06:50:22.514Z,3.40
2022-11-21T06:55:24.861Z,3.50
2022-11-21T07:00:28.973Z,3.50
2022-11-21T07:05:31.550Z,3.60
2022-11-21T07:10:33.853Z,3.60
2022-11-21T07:15:37.605Z,3.60
2022-11-21T07:20:40.391Z,3.60
2022-11-21T07:25:42.822Z,3.80
2022-11-21T07:30:46.524Z,4.00
2022-11-21T07:35:48.825Z,4.20
2022-11-21T07:40:51.185Z,4.50
2022-11-21T07:45:56.153Z,4.50
2022-11-21T07:51:04.442Z,4.50
2022-11-21T07:56:06.910Z,4.40
2022-11-21T08:01:12.498Z,4.30
2022-11-21T08:06:14.858Z,4.30
2022-11-21T08:11:17.104Z,4.30
2022-11-21T08:16:20.798Z,4.40
2022-11-21T08:21:23.217Z,4.40
2022-11-21T08:26:25.525Z,4.40
2022-11-21T08:31:29.278Z,4.30
2022-11-21T08:36:31.532Z,4.30
2022-11-21T08:41:33.850Z,4.30
2022-11-21T08:46:37.564Z,4.20
2022-11-21T08:51:40.125Z,4.30
2022-11-21T08:56:42.351Z,4.30
2022-11-21T09:01:46.538Z,4.20
2022-11-21T09:06:48.803Z,4.20
2022-11-21T09:11:51.037Z,4.20
2022-11-21T09:16:58.014Z,4.30
2022-11-21T09:22:04.350Z,4.30
2022-11-21T09:27:06.503Z,4.30
2022-11-21T09:32:10.289Z,4.30
2022-11-21T09:37:12.719Z,4.40
2022-11-21T09:42:40.335Z,4.40
2022-11-21T09:47:47.784Z,4.50
2022-11-21T09:52:54.345Z,4.50
2022-11-21T09:58:00.952Z,4.60
2022-11-21T10:03:04.752Z,4.70
2022-11-21T10:08:17.977Z,4.70
2022-11-21T10:13:31.638Z,4.80
2022-11-21T10:19:08.261Z,4.80
2022-11-21T10:24:29.001Z,4.90
2022-11-21T10:29:37.154Z,5.00
2022-11-21T10:34:41.182Z,5.10
2022-11-21T10:39:46.507Z,5.20
2022-11-21T10:44:48.892Z,5.40
2022-11-21T10:49:53.661Z,5.50
2022-11-21T10:55:05.858Z,5.80
2022-11-21T11:00:21.441Z,6.40
2022-11-21T11:05:26.720Z,7.00
2022-11-21T11:10:29.624Z,7.60
2022-11-21T11:15:31.896Z,8.10
2022-11-21T11:20:38.235Z,8.70
2022-11-21T11:25:40.612Z,9.20
2022-11-21T11:30:43.648Z,9.60
2022-11-21T11:35:47.782Z,9.80
2022-11-21T11:40:50.298Z,10.00
2022-11-21T11:46:10.174Z,10.20
2022-11-21T11:51:22.859Z,10.40
2022-11-21T11:56:28.546Z,10.50
2022-11-21T12:01:37.690Z,10.70
2022-11-21T12:08:05.734Z,10.90
2022-11-21T12:12:17.245Z,11.00
2022-11-21T12:17:27.026Z,11.00
2022-11-21T12:22:30.775Z,11.00
2022-11-21T12:27:34.178Z,10.60
2022-11-21T12:32:54.737Z,10.10
2022-11-21T12:38:12.468Z,9.50
2022-11-21T12:43:24.961Z,9.10
2022-11-21T12:48:50.834Z,8.80
2022-11-21T12:54:03.338Z,8.60
2022-11-21T12:59:07.792Z,8.40
2022-11-21T13:04:16.631Z,8.30
2022-11-21T13:09:23.469Z,8.10
2022-11-21T13:14:38.126Z,8.10
2022-11-21T13:19:49.282Z,8.20
2022-11-21T13:25:01.489Z,8.60
2022-11-21T13:30:24.604Z,8.90
2022-11-21T13:35:59.984Z,9.20
2022-11-21T13:41:03.674Z,9.30
2022-11-21T13:46:06.065Z,9.30
2022-11-21T13:51:39.538Z,9.30
2022-11-21T13:56:56.825Z,9.00
2022-11-21T14:02:22.071Z,8.60
2022-11-21T14:07:27.999Z,8.20
2022-11-21T14:12:38.300Z,7.80
2022-11-21T14:17:45.391Z,7.40
2022-11-21T14:22:55.294Z,7.00
2022-11-21T14:27:59.686Z,6.70
2022-11-21T14:33:21.862Z,6.50
2022-11-21T14:38:24.205Z,6.30
2022-11-21T14:43:33.034Z,6.10
2022-11-21T14:48:35.397Z,5.90
2022-11-21T14:53:42.695Z,5.80
2022-11-21T14:58:47.104Z,5.60
2022-11-21T15:03:56.221Z,5.40
2022-11-21T15:14:28.807Z,5.10
2022-11-21T15:19:32.527Z,5.00
2022-11-21T15:24:39.626Z,4.90
2022-11-21T15:29:43.346Z,4.80
2022-11-21T15:34:47.108Z,4.80
2022-11-21T15:39:51.598Z,4.70
2022-11-21T15:45:00.649Z,4.60
2022-11-21T15:50:03.126Z,4.60
2022-11-21T15:55:13.840Z,4.50
2022-11-21T16:00:18.401Z,4.40
2022-11-21T16:05:20.617Z,4.30
2022-11-21T16:10:27.409Z,4.20
2022-11-21T16:15:31.847Z,4.20
2022-11-21T16:20:34.196Z,4.20
2022-11-21T16:25:36.445Z,4.20
2022-11-21T16:30:40.987Z,4.20
2022-11-21T16:35:43.453Z,4.30
2022-11-21T16:40:54.381Z,4.30
2022-11-21T16:46:07.313Z,4.30
2022-11-21T16:51:10.927Z,4.30
2022-11-21T16:56:13.987Z,4.30
2022-11-21T17:01:20.053Z,4.40
2022-11-21T17:06:24.063Z,4.40
2022-11-21T17:11:28.262Z,4.30
2022-11-21T17:16:32.376Z,4.40
2022-11-21T17:21:34.659Z,4.40
2022-11-21T17:26:37.271Z,4.40
2022-11-21T17:31:40.910Z,4.30
2022-11-21T17:36:43.259Z,4.40
2022-11-21T17:41:45.466Z,4.30
2022-11-21T17:46:49.164Z,4.30
2022-11-21T17:51:56.306Z,4.30
2022-11-21T17:56:59.984Z,4.20
2022-11-21T18:02:03.881Z,4.20
2022-11-21T18:07:06.374Z,4.20
2022-11-21T18:12:08.873Z,4.20
2022-11-21T18:17:12.705Z,4.10
2022-11-21T18:22:14.976Z,4.00
2022-11-21T18:27:18.569Z,3.90
2022-11-21T18:32:22.746Z,3.90
2022-11-21T18:37:26.066Z,3.80
2022-11-21T18:42:28.383Z,3.70
2022-11-21T18:47:32.078Z,3.60
2022-11-21T18:52:34.511Z,3.60
2022-11-21T18:57:36.811Z,3.50
2022-11-21T19:02:40.669Z,3.50
2022-11-21T19:07:43.119Z,3.40
2022-11-21T19:12:45.464Z,3.40
2022-11-21T19:17:49.263Z,3.40
2022-11-21T19:22:51.539Z,3.30
2022-11-21T19:27:54.416Z,3.30
2022-11-21T19:32:59.207Z,3.30
2022-11-21T19:38:02.166Z,3.30
2022-11-21T19:43:04.413Z,3.30
2022-11-21T19:48:08.428Z,3.30
2022-11-21T19:53:10.690Z,3.30
2022-11-21T19:58:12.961Z,3.20
2022-11-21T20:03:17.028Z,3.20
2022-11-21T20:08:19.518Z,3.20
2022-11-21T20:13:22.116Z,3.10
2022-11-21T20:18:26.423Z,3.10
2022-11-21T20:23:29.934Z,3.00
2022-11-21T20:28:34.217Z,3.00
2022-11-21T20:33:41.228Z,3.00
2022-11-21T20:38:46.460Z,3.00
2022-11-21T20:49:13.312Z,3.10
2022-11-21T20:54:16.243Z,3.10
2022-11-21T20:59:18.577Z,3.10
2022-11-21T21:04:22.415Z,3.10
2022-11-21T21:09:24.739Z,3.00
2022-11-21T21:14:27.146Z,3.00
2022-11-21T21:19:31.455Z,3.00
2022-11-21T21:24:34.189Z,3.00
2022-11-21T21:29:36.432Z,3.00
2022-11-21T21:34:40.340Z,3.00
2022-11-21T21:39:42.623Z,2.90
2022-11-21T21:44:45.188Z,2.90
2022-11-21T21:49:49.319Z,2.90
2022-11-21T21:54:57.596Z,2.90
2022-11-21T22:00:00.270Z,2.90
2022-11-21T22:05:04.606Z,2.90
2022-11-21T22:10:07.340Z,2.90
2022-11-21T22:15:09.804Z,2.90
2022-11-21T22:20:13.943Z,2.80
2022-11-21T22:25:16.603Z,2.80
2022-11-21T22:30:19.185Z,2.80
2022-11-21T22:35:23.159Z,2.80
2022-11-21T22:40:25.567Z,2.80
2022-11-21T22:45:27.913Z,2.80
2022-11-21T22:50:31.796Z,2.80
2022-11-21T22:55:34.325Z,2.80
2022-11-21T23:00:36.959Z,2.80
2022-11-21T23:05:40.789Z,2.80
2022-11-21T23:10:43.141Z,2.80
2022-11-21T23:15:45.603Z,2.90
2022-11-21T23:20:49.616Z,2.90
2022-11-21T23:25:52.708Z,2.90
2022-11-21T23:30:55.139Z,2.90
2022-11-21T23:35:59.010Z,2.90
2022-11-21T23:41:01.703Z,3.00
2022-11-21T23:46:10.525Z,3.00
2022-11-21T23:51:14.456Z,3.00
2022-11-21T23:56:17.012Z,3.10
